sensor_id;sensor_type;location;lat;lon;timestamp;P1;durP1;ratioP1;P2;durP2;ratioP2
72720;SDS011;60835;50.974;10.322;2023-05-06T00:01:58;8.68;;;2.83;;
72720;SDS011;60835;50.974;10.322;2023-05-06T00:04:24;5.90;;;2.88;;
72720;SDS011;60835;50.974;10.322;2023-05-06T00:06:52;5.13;;;2.92;;
72720;SDS011;60835;50.974;10.322;2023-05-06T00:09:19;7.85;;;3.13;;
72720;SDS011;60835;50.974;10.322;2023-05-06T00:11:46;4.97;;;3.25;;
72720;SDS011;60835;50.974;10.322;2023-05-06T00:14:13;5.97;;;3.20;;
72720;SDS011;60835;50.974;10.322;2023-05-06T00:16:39;4.38;;;3.08;;
72720;SDS011;60835;50.974;10.322;2023-05-06T00:19:06;9.18;;;3.40;;
72720;SDS011;60835;50.974;10.322;2023-05-06T00:21:32;7.57;;;3.40;;
72720;SDS011;60835;50.974;10.322;2023-05-06T00:23:59;5.07;;;3.42;;
72720;SDS011;60835;50.974;10.322;2023-05-06T00:26:26;5.82;;;3.50;;
72720;SDS011;60835;50.974;10.322;2023-05-06T00:28:52;5.13;;;3.20;;
72720;SDS011;60835;50.974;10.322;2023-05-06T00:31:19;5.32;;;3.80;;
72720;SDS011;60835;50.974;10.322;2023-05-06T00:33:48;4.93;;;3.55;;
72720;SDS011;60835;50.974;10.322;2023-05-06T00:36:15;5.32;;;3.25;;
72720;SDS011;60835;50.974;10.322;2023-05-06T00:38:42;5.50;;;2.97;;
72720;SDS011;60835;50.974;10.322;2023-05-06T00:41:09;5.57;;;3.50;;
72720;SDS011;60835;50.974;10.322;2023-05-06T00:43:36;5.50;;;3.15;;
72720;SDS011;60835;50.974;10.322;2023-05-06T00:46:02;4.63;;;3.20;;
72720;SDS011;60835;50.974;10.322;2023-05-06T00:48:30;6.10;;;3.33;;
72720;SDS011;60835;50.974;10.322;2023-05-06T00:50:57;4.47;;;3.45;;
72720;SDS011;60835;50.974;10.322;2023-05-06T00:53:24;5.57;;;3.40;;
72720;SDS011;60835;50.974;10.322;2023-05-06T00:55:50;7.35;;;3.38;;
72720;SDS011;60835;50.974;10.322;2023-05-06T00:58:18;5.63;;;4.35;;
72720;SDS011;60835;50.974;10.322;2023-05-06T01:00:45;6.50;;;4.30;;
72720;SDS011;60835;50.974;10.322;2023-05-06T01:03:12;7.30;;;3.80;;
72720;SDS011;60835;50.974;10.322;2023-05-06T01:05:44;7.07;;;4.05;;
72720;SDS011;60835;50.974;10.322;2023-05-06T01:08:31;5.18;;;4.28;;
72720;SDS011;60835;50.974;10.322;2023-05-06T01:11:10;8.02;;;3.85;;
72720;SDS011;60835;50.974;10.322;2023-05-06T01:16:18;5.07;;;3.85;;
72720;SDS011;60835;50.974;10.322;2023-05-06T01:18:48;5.50;;;4.57;;
72720;SDS011;60835;50.974;10.322;2023-05-06T01:21:17;5.53;;;4.10;;
72720;SDS011;60835;50.974;10.322;2023-05-06T01:23:48;6.30;;;4.32;;
72720;SDS011;60835;50.974;10.322;2023-05-06T01:26:20;6.00;;;3.95;;
72720;SDS011;60835;50.974;10.322;2023-05-06T01:28:48;4.93;;;3.90;;
72720;SDS011;60835;50.974;10.322;2023-05-06T01:31:16;5.65;;;3.70;;
72720;SDS011;60835;50.974;10.322;2023-05-06T01:39:23;5.60;;;3.95;;
72720;SDS011;60835;50.974;10.322;2023-05-06T01:41:51;7.28;;;5.00;;
72720;SDS011;60835;50.974;10.322;2023-05-06T01:44:21;5.93;;;4.05;;
72720;SDS011;60835;50.974;10.322;2023-05-06T01:49:30;5.45;;;4.57;;
72720;SDS011;60835;50.974;10.322;2023-05-06T01:52:00;7.18;;;4.57;;
72720;SDS011;60835;50.974;10.322;2023-05-06T01:54:27;7.47;;;4.32;;
72720;SDS011;60835;50.974;10.322;2023-05-06T01:56:54;5.60;;;4.25;;
72720;SDS011;60835;50.974;10.322;2023-05-06T01:59:20;5.47;;;4.18;;
72720;SDS011;60835;50.974;10.322;2023-05-06T02:01:47;7.53;;;4.63;;
72720;SDS011;60835;50.974;10.322;2023-05-06T02:04:13;8.77;;;4.50;;
72720;SDS011;60835;50.974;10.322;2023-05-06T02:06:40;6.22;;;4.50;;
72720;SDS011;60835;50.974;10.322;2023-05-06T02:09:07;8.32;;;4.53;;
72720;SDS011;60835;50.974;10.322;2023-05-06T02:11:33;5.90;;;4.18;;
72720;SDS011;60835;50.974;10.322;2023-05-06T02:14:00;8.20;;;4.50;;
72720;SDS011;60835;50.974;10.322;2023-05-06T02:16:27;6.85;;;4.70;;
72720;SDS011;60835;50.974;10.322;2023-05-06T02:18:54;7.60;;;4.50;;
72720;SDS011;60835;50.974;10.322;2023-05-06T02:21:21;7.07;;;4.60;;
72720;SDS011;60835;50.974;10.322;2023-05-06T02:23:48;6.13;;;4.25;;
72720;SDS011;60835;50.974;10.322;2023-05-06T02:26:15;8.80;;;5.25;;
72720;SDS011;60835;50.974;10.322;2023-05-06T02:28:44;7.22;;;5.30;;
72720;SDS011;60835;50.974;10.322;2023-05-06T02:31:14;7.78;;;4.97;;
72720;SDS011;60835;50.974;10.322;2023-05-06T02:33:42;7.50;;;5.30;;
72720;SDS011;60835;50.974;10.322;2023-05-06T02:36:10;6.85;;;5.35;;
72720;SDS011;60835;50.974;10.322;2023-05-06T02:38:36;8.02;;;5.72;;
72720;SDS011;60835;50.974;10.322;2023-05-06T02:41:03;7.63;;;5.13;;
72720;SDS011;60835;50.974;10.322;2023-05-06T02:43:29;8.75;;;5.40;;
72720;SDS011;60835;50.974;10.322;2023-05-06T02:45:56;10.45;;;5.88;;
72720;SDS011;60835;50.974;10.322;2023-05-06T02:48:23;10.88;;;5.72;;
72720;SDS011;60835;50.974;10.322;2023-05-06T02:50:50;8.35;;;6.03;;
72720;SDS011;60835;50.974;10.322;2023-05-06T02:53:17;9.25;;;5.68;;
72720;SDS011;60835;50.974;10.322;2023-05-06T02:55:43;7.88;;;5.68;;
72720;SDS011;60835;50.974;10.322;2023-05-06T02:58:13;7.65;;;6.03;;
72720;SDS011;60835;50.974;10.322;2023-05-06T03:00:39;10.75;;;6.63;;
72720;SDS011;60835;50.974;10.322;2023-05-06T03:03:06;10.48;;;6.72;;
72720;SDS011;60835;50.974;10.322;2023-05-06T03:05:33;8.15;;;6.15;;
72720;SDS011;60835;50.974;10.322;2023-05-06T03:07:59;7.63;;;5.78;;
72720;SDS011;60835;50.974;10.322;2023-05-06T03:10:27;10.98;;;6.50;;
72720;SDS011;60835;50.974;10.322;2023-05-06T03:12:54;7.60;;;6.13;;
72720;SDS011;60835;50.974;10.322;2023-05-06T03:15:20;9.07;;;6.50;;
72720;SDS011;60835;50.974;10.322;2023-05-06T03:17:47;11.82;;;6.40;;
72720;SDS011;60835;50.974;10.322;2023-05-06T03:20:14;10.50;;;6.90;;
72720;SDS011;60835;50.974;10.322;2023-05-06T03:22:42;8.05;;;6.05;;
72720;SDS011;60835;50.974;10.322;2023-05-06T03:25:08;8.68;;;5.93;;
72720;SDS011;60835;50.974;10.322;2023-05-06T03:27:35;9.15;;;6.55;;
72720;SDS011;60835;50.974;10.322;2023-05-06T03:30:03;8.45;;;5.53;;
72720;SDS011;60835;50.974;10.322;2023-05-06T03:32:30;9.60;;;6.00;;
72720;SDS011;60835;50.974;10.322;2023-05-06T03:34:57;9.38;;;6.10;;
72720;SDS011;60835;50.974;10.322;2023-05-06T03:37:24;8.18;;;6.43;;
72720;SDS011;60835;50.974;10.322;2023-05-06T03:39:51;9.73;;;6.43;;
72720;SDS011;60835;50.974;10.322;2023-05-06T03:42:18;10.20;;;6.40;;
72720;SDS011;60835;50.974;10.322;2023-05-06T03:44:44;8.30;;;6.40;;
72720;SDS011;60835;50.974;10.322;2023-05-06T03:47:11;8.50;;;6.53;;
72720;SDS011;60835;50.974;10.322;2023-05-06T03:49:37;9.95;;;6.10;;
72720;SDS011;60835;50.974;10.322;2023-05-06T03:52:04;9.85;;;6.30;;
72720;SDS011;60835;50.974;10.322;2023-05-06T03:54:31;11.00;;;6.85;;
72720;SDS011;60835;50.974;10.322;2023-05-06T03:56:57;10.23;;;6.75;;
72720;SDS011;60835;50.974;10.322;2023-05-06T03:59:24;11.68;;;6.00;;
72720;SDS011;60835;50.974;10.322;2023-05-06T04:01:50;14.10;;;6.53;;
72720;SDS011;60835;50.974;10.322;2023-05-06T04:04:18;9.85;;;6.28;;
72720;SDS011;60835;50.974;10.322;2023-05-06T04:06:44;9.15;;;6.38;;
72720;SDS011;60835;50.974;10.322;2023-05-06T04:09:11;12.35;;;6.45;;
72720;SDS011;60835;50.974;10.322;2023-05-06T04:11:38;11.80;;;6.78;;
72720;SDS011;60835;50.974;10.322;2023-05-06T04:14:04;8.60;;;6.53;;
72720;SDS011;60835;50.974;10.322;2023-05-06T04:16:31;8.15;;;6.35;;
72720;SDS011;60835;50.974;10.322;2023-05-06T04:18:58;12.05;;;6.75;;
72720;SDS011;60835;50.974;10.322;2023-05-06T04:21:24;10.00;;;7.03;;
72720;SDS011;60835;50.974;10.322;2023-05-06T04:23:51;9.13;;;6.88;;
72720;SDS011;60835;50.974;10.322;2023-05-06T04:26:17;9.95;;;7.35;;
72720;SDS011;60835;50.974;10.322;2023-05-06T04:28:44;10.55;;;7.00;;
72720;SDS011;60835;50.974;10.322;2023-05-06T04:31:11;8.95;;;6.22;;
72720;SDS011;60835;50.974;10.322;2023-05-06T04:33:39;8.70;;;6.35;;
72720;SDS011;60835;50.974;10.322;2023-05-06T04:36:07;11.02;;;6.65;;
72720;SDS011;60835;50.974;10.322;2023-05-06T04:38:33;7.70;;;6.05;;
72720;SDS011;60835;50.974;10.322;2023-05-06T04:41:02;8.38;;;6.13;;
72720;SDS011;60835;50.974;10.322;2023-05-06T04:43:32;10.10;;;5.90;;
72720;SDS011;60835;50.974;10.322;2023-05-06T04:45:58;7.32;;;5.65;;
72720;SDS011;60835;50.974;10.322;2023-05-06T04:48:27;9.43;;;6.38;;
72720;SDS011;60835;50.974;10.322;2023-05-06T04:50:53;9.25;;;7.10;;
72720;SDS011;60835;50.974;10.322;2023-05-06T04:53:20;10.00;;;6.85;;
72720;SDS011;60835;50.974;10.322;2023-05-06T04:55:46;11.73;;;6.28;;
72720;SDS011;60835;50.974;10.322;2023-05-06T04:58:13;8.63;;;6.32;;
72720;SDS011;60835;50.974;10.322;2023-05-06T05:00:39;9.27;;;6.88;;
72720;SDS011;60835;50.974;10.322;2023-05-06T05:03:06;9.18;;;6.28;;
72720;SDS011;60835;50.974;10.322;2023-05-06T05:05:33;8.63;;;6.18;;
72720;SDS011;60835;50.974;10.322;2023-05-06T05:08:00;6.97;;;6.13;;
72720;SDS011;60835;50.974;10.322;2023-05-06T05:10:27;8.10;;;6.28;;
72720;SDS011;60835;50.974;10.322;2023-05-06T05:12:53;9.15;;;6.28;;
72720;SDS011;60835;50.974;10.322;2023-05-06T05:15:20;7.90;;;6.25;;
72720;SDS011;60835;50.974;10.322;2023-05-06T05:17:48;8.68;;;6.40;;
72720;SDS011;60835;50.974;10.322;2023-05-06T05:20:16;8.93;;;6.10;;
72720;SDS011;60835;50.974;10.322;2023-05-06T05:22:43;7.10;;;5.60;;
72720;SDS011;60835;50.974;10.322;2023-05-06T05:25:10;7.85;;;5.70;;
72720;SDS011;60835;50.974;10.322;2023-05-06T05:27:37;13.77;;;6.70;;
72720;SDS011;60835;50.974;10.322;2023-05-06T05:30:04;8.07;;;5.93;;
72720;SDS011;60835;50.974;10.322;2023-05-06T05:32:31;9.38;;;6.47;;
72720;SDS011;60835;50.974;10.322;2023-05-06T05:34:58;7.93;;;5.78;;
72720;SDS011;60835;50.974;10.322;2023-05-06T05:37:24;8.80;;;6.57;;
72720;SDS011;60835;50.974;10.322;2023-05-06T05:39:51;8.23;;;5.57;;
72720;SDS011;60835;50.974;10.322;2023-05-06T05:42:18;7.57;;;5.93;;
72720;SDS011;60835;50.974;10.322;2023-05-06T05:44:45;8.65;;;5.82;;
72720;SDS011;60835;50.974;10.322;2023-05-06T05:47:14;7.72;;;5.40;;
72720;SDS011;60835;50.974;10.322;2023-05-06T05:49:42;11.00;;;6.22;;
72720;SDS011;60835;50.974;10.322;2023-05-06T05:52:09;7.95;;;6.20;;
72720;SDS011;60835;50.974;10.322;2023-05-06T05:54:36;8.35;;;6.43;;
72720;SDS011;60835;50.974;10.322;2023-05-06T05:57:03;7.30;;;5.95;;
72720;SDS011;60835;50.974;10.322;2023-05-06T05:59:29;7.28;;;5.78;;
72720;SDS011;60835;50.974;10.322;2023-05-06T06:01:57;9.73;;;5.75;;
72720;SDS011;60835;50.974;10.322;2023-05-06T06:04:23;5.90;;;5.13;;
72720;SDS011;60835;50.974;10.322;2023-05-06T06:06:50;6.75;;;5.07;;
72720;SDS011;60835;50.974;10.322;2023-05-06T06:09:17;7.35;;;4.63;;
72720;SDS011;60835;50.974;10.322;2023-05-06T06:11:44;6.00;;;4.82;;
72720;SDS011;60835;50.974;10.322;2023-05-06T06:14:10;10.15;;;5.30;;
72720;SDS011;60835;50.974;10.322;2023-05-06T06:16:37;6.95;;;4.60;;
72720;SDS011;60835;50.974;10.322;2023-05-06T06:19:04;7.80;;;6.03;;
72720;SDS011;60835;50.974;10.322;2023-05-06T06:21:31;6.03;;;4.90;;
72720;SDS011;60835;50.974;10.322;2023-05-06T06:23:58;6.13;;;4.82;;
72720;SDS011;60835;50.974;10.322;2023-05-06T06:26:25;5.05;;;4.35;;
72720;SDS011;60835;50.974;10.322;2023-05-06T06:28:53;6.57;;;4.22;;
72720;SDS011;60835;50.974;10.322;2023-05-06T06:31:20;7.60;;;4.40;;
72720;SDS011;60835;50.974;10.322;2023-05-06T06:33:47;7.05;;;4.00;;
72720;SDS011;60835;50.974;10.322;2023-05-06T06:36:13;6.88;;;3.58;;
72720;SDS011;60835;50.974;10.322;2023-05-06T06:38:40;6.40;;;3.95;;
72720;SDS011;60835;50.974;10.322;2023-05-06T06:41:07;4.97;;;3.78;;
72720;SDS011;60835;50.974;10.322;2023-05-06T06:43:34;7.60;;;3.40;;
72720;SDS011;60835;50.974;10.322;2023-05-06T06:46:01;5.65;;;4.15;;
72720;SDS011;60835;50.974;10.322;2023-05-06T06:48:27;5.82;;;4.03;;
72720;SDS011;60835;50.974;10.322;2023-05-06T06:50:54;4.55;;;3.70;;
72720;SDS011;60835;50.974;10.322;2023-05-06T06:53:25;4.82;;;3.70;;
72720;SDS011;60835;50.974;10.322;2023-05-06T06:55:53;4.05;;;3.53;;
72720;SDS011;60835;50.974;10.322;2023-05-06T06:58:19;3.97;;;2.65;;
72720;SDS011;60835;50.974;10.322;2023-05-06T07:00:47;5.00;;;3.92;;
72720;SDS011;60835;50.974;10.322;2023-05-06T07:03:14;3.78;;;3.10;;
72720;SDS011;60835;50.974;10.322;2023-05-06T07:05:44;4.60;;;3.75;;
72720;SDS011;60835;50.974;10.322;2023-05-06T07:08:11;2.95;;;2.60;;
72720;SDS011;60835;50.974;10.322;2023-05-06T07:10:38;3.67;;;2.78;;
72720;SDS011;60835;50.974;10.322;2023-05-06T07:13:05;5.93;;;2.92;;
72720;SDS011;60835;50.974;10.322;2023-05-06T07:15:31;4.10;;;3.08;;
72720;SDS011;60835;50.974;10.322;2023-05-06T07:17:58;3.28;;;2.78;;
72720;SDS011;60835;50.974;10.322;2023-05-06T07:20:30;3.20;;;2.83;;
72720;SDS011;60835;50.974;10.322;2023-05-06T07:22:59;4.35;;;3.20;;
72720;SDS011;60835;50.974;10.322;2023-05-06T07:25:26;6.88;;;4.35;;
72720;SDS011;60835;50.974;10.322;2023-05-06T07:27:53;4.45;;;3.55;;
72720;SDS011;60835;50.974;10.322;2023-05-06T07:30:20;3.47;;;2.78;;
72720;SDS011;60835;50.974;10.322;2023-05-06T07:32:48;4.18;;;3.00;;
72720;SDS011;60835;50.974;10.322;2023-05-06T07:35:15;2.72;;;2.53;;
72720;SDS011;60835;50.974;10.322;2023-05-06T07:37:44;4.20;;;2.30;;
72720;SDS011;60835;50.974;10.322;2023-05-06T07:40:11;3.58;;;2.75;;
72720;SDS011;60835;50.974;10.322;2023-05-06T07:42:38;2.70;;;2.50;;
72720;SDS011;60835;50.974;10.322;2023-05-06T07:45:08;2.20;;;2.00;;
72720;SDS011;60835;50.974;10.322;2023-05-06T07:47:36;3.05;;;1.95;;
72720;SDS011;60835;50.974;10.322;2023-05-06T07:50:04;2.50;;;2.30;;
72720;SDS011;60835;50.974;10.322;2023-05-06T07:52:32;3.55;;;1.98;;
72720;SDS011;60835;50.974;10.322;2023-05-06T07:54:58;2.83;;;2.13;;
72720;SDS011;60835;50.974;10.322;2023-05-06T07:57:25;2.75;;;2.40;;
72720;SDS011;60835;50.974;10.322;2023-05-06T07:59:53;3.63;;;2.25;;
72720;SDS011;60835;50.974;10.322;2023-05-06T08:02:19;2.50;;;2.20;;
72720;SDS011;60835;50.974;10.322;2023-05-06T08:04:46;2.30;;;2.10;;
72720;SDS011;60835;50.974;10.322;2023-05-06T08:07:16;2.25;;;1.90;;
72720;SDS011;60835;50.974;10.322;2023-05-06T08:09:42;3.03;;;2.10;;
72720;SDS011;60835;50.974;10.322;2023-05-06T08:12:09;1.90;;;1.75;;
72720;SDS011;60835;50.974;10.322;2023-05-06T08:14:38;3.83;;;1.67;;
72720;SDS011;60835;50.974;10.322;2023-05-06T08:17:06;1.75;;;1.60;;
72720;SDS011;60835;50.974;10.322;2023-05-06T08:19:32;2.05;;;1.88;;
72720;SDS011;60835;50.974;10.322;2023-05-06T08:21:59;1.50;;;1.40;;
72720;SDS011;60835;50.974;10.322;2023-05-06T08:24:26;2.95;;;1.52;;
72720;SDS011;60835;50.974;10.322;2023-05-06T08:26:53;1.55;;;1.45;;
72720;SDS011;60835;50.974;10.322;2023-05-06T08:29:20;1.35;;;1.25;;
72720;SDS011;60835;50.974;10.322;2023-05-06T08:31:46;1.70;;;1.48;;
72720;SDS011;60835;50.974;10.322;2023-05-06T08:34:13;1.52;;;1.42;;
72720;SDS011;60835;50.974;10.322;2023-05-06T08:36:43;1.88;;;1.20;;
72720;SDS011;60835;50.974;10.322;2023-05-06T08:39:10;5.05;;;1.80;;
72720;SDS011;60835;50.974;10.322;2023-05-06T08:41:37;1.40;;;1.20;;
72720;SDS011;60835;50.974;10.322;2023-05-06T08:44:14;2.47;;;1.30;;
72720;SDS011;60835;50.974;10.322;2023-05-06T08:46:45;1.35;;;1.20;;
72720;SDS011;60835;50.974;10.322;2023-05-06T08:49:12;1.23;;;1.13;;
72720;SDS011;60835;50.974;10.322;2023-05-06T08:51:38;3.55;;;1.50;;
72720;SDS011;60835;50.974;10.322;2023-05-06T08:54:10;1.85;;;1.30;;
72720;SDS011;60835;50.974;10.322;2023-05-06T08:56:39;2.38;;;1.30;;
72720;SDS011;60835;50.974;10.322;2023-05-06T08:59:19;3.97;;;1.63;;
72720;SDS011;60835;50.974;10.322;2023-05-06T09:01:50;2.25;;;1.60;;
72720;SDS011;60835;50.974;10.322;2023-05-06T09:04:17;2.53;;;1.33;;
72720;SDS011;60835;50.974;10.322;2023-05-06T09:06:44;3.45;;;1.17;;
72720;SDS011;60835;50.974;10.322;2023-05-06T09:09:12;2.15;;;1.63;;
72720;SDS011;60835;50.974;10.322;2023-05-06T09:11:42;2.33;;;1.50;;
72720;SDS011;60835;50.974;10.322;2023-05-06T09:14:17;1.42;;;1.23;;
72720;SDS011;60835;50.974;10.322;2023-05-06T09:16:44;3.17;;;1.25;;
72720;SDS011;60835;50.974;10.322;2023-05-06T09:19:13;2.55;;;1.65;;
72720;SDS011;60835;50.974;10.322;2023-05-06T09:21:41;1.17;;;1.08;;
72720;SDS011;60835;50.974;10.322;2023-05-06T09:24:11;1.17;;;1.05;;
72720;SDS011;60835;50.974;10.322;2023-05-06T09:26:42;5.07;;;3.03;;
72720;SDS011;60835;50.974;10.322;2023-05-06T09:29:16;1.45;;;1.10;;
72720;SDS011;60835;50.974;10.322;2023-05-06T09:31:43;2.35;;;1.30;;
72720;SDS011;60835;50.974;10.322;2023-05-06T09:34:13;1.90;;;1.27;;
72720;SDS011;60835;50.974;10.322;2023-05-06T09:36:41;3.20;;;1.45;;
72720;SDS011;60835;50.974;10.322;2023-05-06T09:39:07;3.13;;;1.17;;
72720;SDS011;60835;50.974;10.322;2023-05-06T09:41:35;2.70;;;1.15;;
72720;SDS011;60835;50.974;10.322;2023-05-06T09:44:02;3.30;;;1.55;;
72720;SDS011;60835;50.974;10.322;2023-05-06T09:46:29;2.00;;;1.65;;
72720;SDS011;60835;50.974;10.322;2023-05-06T09:48:56;13.73;;;10.15;;
72720;SDS011;60835;50.974;10.322;2023-05-06T09:51:24;1.55;;;1.40;;
72720;SDS011;60835;50.974;10.322;2023-05-06T09:53:54;2.55;;;1.40;;
72720;SDS011;60835;50.974;10.322;2023-05-06T09:56:23;2.95;;;2.33;;
72720;SDS011;60835;50.974;10.322;2023-05-06T09:58:50;2.95;;;1.20;;
72720;SDS011;60835;50.974;10.322;2023-05-06T10:01:17;4.43;;;1.42;;
72720;SDS011;60835;50.974;10.322;2023-05-06T10:04:02;3.75;;;1.50;;
72720;SDS011;60835;50.974;10.322;2023-05-06T10:06:34;2.50;;;1.20;;
72720;SDS011;60835;50.974;10.322;2023-05-06T10:09:02;1.42;;;0.77;;
72720;SDS011;60835;50.974;10.322;2023-05-06T10:11:31;2.25;;;1.15;;
72720;SDS011;60835;50.974;10.322;2023-05-06T10:13:59;1.90;;;1.25;;
72720;SDS011;60835;50.974;10.322;2023-05-06T10:16:26;3.35;;;2.28;;
72720;SDS011;60835;50.974;10.322;2023-05-06T10:18:54;1.45;;;0.98;;
72720;SDS011;60835;50.974;10.322;2023-05-06T10:21:23;1.25;;;1.08;;
72720;SDS011;60835;50.974;10.322;2023-05-06T10:24:01;5.10;;;1.15;;
72720;SDS011;60835;50.974;10.322;2023-05-06T10:26:37;2.20;;;1.13;;
72720;SDS011;60835;50.974;10.322;2023-05-06T10:29:07;2.03;;;0.95;;
72720;SDS011;60835;50.974;10.322;2023-05-06T10:31:39;4.43;;;1.55;;
72720;SDS011;60835;50.974;10.322;2023-05-06T10:34:14;3.33;;;2.10;;
72720;SDS011;60835;50.974;10.322;2023-05-06T10:36:43;2.13;;;1.15;;
72720;SDS011;60835;50.974;10.322;2023-05-06T10:39:11;2.25;;;1.25;;
72720;SDS011;60835;50.974;10.322;2023-05-06T10:41:39;1.92;;;1.27;;
72720;SDS011;60835;50.974;10.322;2023-05-06T10:44:06;10.20;;;3.22;;
72720;SDS011;60835;50.974;10.322;2023-05-06T10:49:27;5.73;;;0.97;;
72720;SDS011;60835;50.974;10.322;2023-05-06T10:52:13;1.52;;;1.00;;
72720;SDS011;60835;50.974;10.322;2023-05-06T10:54:49;2.25;;;0.93;;
72720;SDS011;60835;50.974;10.322;2023-05-06T10:57:16;2.45;;;0.80;;
72720;SDS011;60835;50.974;10.322;2023-05-06T10:59:45;2.25;;;1.10;;
72720;SDS011;60835;50.974;10.322;2023-05-06T11:02:12;2.10;;;1.60;;
72720;SDS011;60835;50.974;10.322;2023-05-06T11:04:39;1.20;;;1.10;;
72720;SDS011;60835;50.974;10.322;2023-05-06T11:07:10;3.67;;;1.17;;
72720;SDS011;60835;50.974;10.322;2023-05-06T11:09:57;2.08;;;1.20;;
72720;SDS011;60835;50.974;10.322;2023-05-06T11:15:36;3.53;;;1.10;;
72720;SDS011;60835;50.974;10.322;2023-05-06T11:24:20;1.52;;;1.00;;
72720;SDS011;60835;50.974;10.322;2023-05-06T11:26:25;7.70;;;5.43;;
72720;SDS011;60835;50.974;10.322;2023-05-06T11:28:52;2.30;;;1.23;;
72720;SDS011;60835;50.974;10.322;2023-05-06T11:31:18;2.35;;;0.82;;
72720;SDS011;60835;50.974;10.322;2023-05-06T11:33:48;2.70;;;1.27;;
72720;SDS011;60835;50.974;10.322;2023-05-06T11:36:18;1.40;;;1.20;;
72720;SDS011;60835;50.974;10.322;2023-05-06T11:38:49;2.63;;;1.10;;
72720;SDS011;60835;50.974;10.322;2023-05-06T11:41:18;5.10;;;2.03;;
72720;SDS011;60835;50.974;10.322;2023-05-06T11:43:48;1.55;;;1.00;;
72720;SDS011;60835;50.974;10.322;2023-05-06T11:46:19;1.90;;;0.90;;
72720;SDS011;60835;50.974;10.322;2023-05-06T11:48:48;2.58;;;1.52;;
72720;SDS011;60835;50.974;10.322;2023-05-06T11:51:21;3.65;;;1.17;;
72720;SDS011;60835;50.974;10.322;2023-05-06T11:53:48;1.30;;;1.00;;
72720;SDS011;60835;50.974;10.322;2023-05-06T11:56:15;2.08;;;1.00;;
72720;SDS011;60835;50.974;10.322;2023-05-06T11:58:41;1.77;;;1.30;;
72720;SDS011;60835;50.974;10.322;2023-05-06T12:01:08;5.50;;;1.30;;
72720;SDS011;60835;50.974;10.322;2023-05-06T12:03:37;1.70;;;1.23;;
72720;SDS011;60835;50.974;10.322;2023-05-06T12:06:05;2.38;;;1.33;;
72720;SDS011;60835;50.974;10.322;2023-05-06T12:08:32;2.40;;;0.98;;
72720;SDS011;60835;50.974;10.322;2023-05-06T12:11:01;3.40;;;1.10;;
72720;SDS011;60835;50.974;10.322;2023-05-06T12:13:33;2.33;;;1.33;;
72720;SDS011;60835;50.974;10.322;2023-05-06T12:18:33;3.85;;;0.95;;
72720;SDS011;60835;50.974;10.322;2023-05-06T12:21:01;1.77;;;0.90;;
72720;SDS011;60835;50.974;10.322;2023-05-06T12:23:28;1.45;;;1.10;;
72720;SDS011;60835;50.974;10.322;2023-05-06T12:26:01;4.45;;;1.45;;
72720;SDS011;60835;50.974;10.322;2023-05-06T12:28:34;5.43;;;2.78;;
72720;SDS011;60835;50.974;10.322;2023-05-06T12:33:48;1.92;;;1.35;;
72720;SDS011;60835;50.974;10.322;2023-05-06T12:36:23;1.48;;;0.93;;
72720;SDS011;60835;50.974;10.322;2023-05-06T12:38:52;2.85;;;1.08;;
72720;SDS011;60835;50.974;10.322;2023-05-06T12:41:20;1.95;;;0.88;;
72720;SDS011;60835;50.974;10.322;2023-05-06T12:43:48;2.17;;;1.02;;
72720;SDS011;60835;50.974;10.322;2023-05-06T12:46:15;1.20;;;1.10;;
72720;SDS011;60835;50.974;10.322;2023-05-06T12:49:03;1.58;;;1.00;;
72720;SDS011;60835;50.974;10.322;2023-05-06T12:51:29;8.70;;;2.67;;
72720;SDS011;60835;50.974;10.322;2023-05-06T12:53:57;6.10;;;2.95;;
72720;SDS011;60835;50.974;10.322;2023-05-06T12:56:24;2.42;;;1.15;;
72720;SDS011;60835;50.974;10.322;2023-05-06T12:59:02;3.42;;;1.27;;
72720;SDS011;60835;50.974;10.322;2023-05-06T13:01:29;6.05;;;2.00;;
72720;SDS011;60835;50.974;10.322;2023-05-06T13:03:57;1.13;;;0.90;;
72720;SDS011;60835;50.974;10.322;2023-05-06T13:06:25;1.10;;;0.95;;
72720;SDS011;60835;50.974;10.322;2023-05-06T13:08:54;1.98;;;1.13;;
72720;SDS011;60835;50.974;10.322;2023-05-06T13:11:20;2.67;;;1.40;;
72720;SDS011;60835;50.974;10.322;2023-05-06T13:13:47;3.40;;;1.30;;
72720;SDS011;60835;50.974;10.322;2023-05-06T13:16:14;5.03;;;1.17;;
72720;SDS011;60835;50.974;10.322;2023-05-06T13:18:41;2.67;;;2.10;;
72720;SDS011;60835;50.974;10.322;2023-05-06T13:21:08;2.00;;;1.60;;
72720;SDS011;60835;50.974;10.322;2023-05-06T13:23:34;2.10;;;1.17;;
72720;SDS011;60835;50.974;10.322;2023-05-06T13:26:03;2.88;;;1.20;;
72720;SDS011;60835;50.974;10.322;2023-05-06T13:28:32;2.60;;;1.50;;
72720;SDS011;60835;50.974;10.322;2023-05-06T13:30:59;1.83;;;1.13;;
72720;SDS011;60835;50.974;10.322;2023-05-06T13:33:29;2.55;;;1.42;;
72720;SDS011;60835;50.974;10.322;2023-05-06T13:35:57;2.40;;;1.23;;
72720;SDS011;60835;50.974;10.322;2023-05-06T13:38:24;2.33;;;1.52;;
72720;SDS011;60835;50.974;10.322;2023-05-06T13:40:51;2.78;;;1.30;;
72720;SDS011;60835;50.974;10.322;2023-05-06T13:43:19;1.65;;;1.02;;
72720;SDS011;60835;50.974;10.322;2023-05-06T13:45:47;0.98;;;0.73;;
72720;SDS011;60835;50.974;10.322;2023-05-06T13:48:13;2.25;;;0.85;;
72720;SDS011;60835;50.974;10.322;2023-05-06T13:50:40;1.95;;;1.00;;
72720;SDS011;60835;50.974;10.322;2023-05-06T13:53:07;1.73;;;1.08;;
72720;SDS011;60835;50.974;10.322;2023-05-06T13:55:34;3.05;;;1.17;;
72720;SDS011;60835;50.974;10.322;2023-05-06T13:58:01;1.77;;;1.10;;
72720;SDS011;60835;50.974;10.322;2023-05-06T14:00:29;1.67;;;1.17;;
72720;SDS011;60835;50.974;10.322;2023-05-06T14:05:21;2.23;;;1.20;;
72720;SDS011;60835;50.974;10.322;2023-05-06T14:07:48;1.85;;;1.10;;
72720;SDS011;60835;50.974;10.322;2023-05-06T14:10:15;1.50;;;0.90;;
72720;SDS011;60835;50.974;10.322;2023-05-06T14:12:42;2.13;;;1.10;;
72720;SDS011;60835;50.974;10.322;2023-05-06T14:15:10;3.30;;;1.85;;
72720;SDS011;60835;50.974;10.322;2023-05-06T14:17:37;1.55;;;1.08;;
72720;SDS011;60835;50.974;10.322;2023-05-06T14:20:04;1.70;;;1.17;;
72720;SDS011;60835;50.974;10.322;2023-05-06T14:22:31;1.90;;;1.15;;
72720;SDS011;60835;50.974;10.322;2023-05-06T14:24:58;1.90;;;1.10;;
72720;SDS011;60835;50.974;10.322;2023-05-06T14:27:25;1.90;;;1.08;;
72720;SDS011;60835;50.974;10.322;2023-05-06T14:29:52;1.60;;;0.88;;
72720;SDS011;60835;50.974;10.322;2023-05-06T14:32:18;1.20;;;1.00;;
72720;SDS011;60835;50.974;10.322;2023-05-06T14:34:45;3.75;;;1.58;;
72720;SDS011;60835;50.974;10.322;2023-05-06T14:37:12;3.33;;;1.50;;
72720;SDS011;60835;50.974;10.322;2023-05-06T14:39:39;2.67;;;1.40;;
72720;SDS011;60835;50.974;10.322;2023-05-06T14:42:06;5.90;;;1.35;;
72720;SDS011;60835;50.974;10.322;2023-05-06T14:44:33;2.85;;;1.17;;
72720;SDS011;60835;50.974;10.322;2023-05-06T14:46:59;4.32;;;1.33;;
72720;SDS011;60835;50.974;10.322;2023-05-06T14:49:26;2.95;;;1.00;;
72720;SDS011;60835;50.974;10.322;2023-05-06T14:51:53;4.38;;;2.08;;
72720;SDS011;60835;50.974;10.322;2023-05-06T14:54:19;2.88;;;1.05;;
72720;SDS011;60835;50.974;10.322;2023-05-06T14:56:46;2.22;;;1.00;;
72720;SDS011;60835;50.974;10.322;2023-05-06T14:59:17;2.30;;;1.15;;
72720;SDS011;60835;50.974;10.322;2023-05-06T15:01:44;2.60;;;1.40;;
72720;SDS011;60835;50.974;10.322;2023-05-06T15:04:11;3.22;;;1.50;;
72720;SDS011;60835;50.974;10.322;2023-05-06T15:06:40;2.17;;;1.40;;
72720;SDS011;60835;50.974;10.322;2023-05-06T15:11:37;4.95;;;1.13;;